createdAt,value
2022-08-16T00:05:47.818Z,22.66
2022-08-16T00:21:58.400Z,22.49
2022-08-16T00:37:56.532Z,22.36
2022-08-16T00:48:28.937Z,22.24
2022-08-16T00:53:39.283Z,22.22
2022-08-16T01:04:25.699Z,22.13
2022-08-16T01:36:13.412Z,21.81
2022-08-16T01:46:52.772Z,21.68
2022-08-16T01:52:27.843Z,21.62
2022-08-16T02:02:52.251Z,21.57
2022-08-16T02:18:46.951Z,21.48
2022-08-16T02:29:24.391Z,21.41
2022-08-16T02:45:32.542Z,21.25
2022-08-16T02:56:00.475Z,21.18
2022-08-16T03:01:24.480Z,21.12
2022-08-16T03:09:52.862Z,21.07
2022-08-16T03:11:58.182Z,21.03
2022-08-16T03:17:17.738Z,21
2022-08-16T03:22:37.123Z,20.95
2022-08-16T03:35:32.523Z,20.83
2022-08-16T03:44:40.636Z,20.74
2022-08-16T03:55:55.933Z,20.67
2022-08-16T04:00:20.311Z,20.64
2022-08-16T04:16:28.472Z,20.56
2022-08-16T04:26:55.268Z,20.49
2022-08-16T04:32:14.062Z,20.49
2022-08-16T04:42:52.622Z,20.43
2022-08-16T04:58:50.071Z,20.41
2022-08-16T05:09:28.358Z,20.41
2022-08-16T05:15:01.613Z,20.44
2022-08-16T05:25:29.672Z,20.69
2022-08-16T05:30:56.139Z,21
2022-08-16T05:46:43.699Z,21.86
2022-08-16T06:02:40.015Z,22.81
2022-08-16T06:07:59.577Z,23.19
2022-08-16T06:18:37.338Z,23.9
2022-08-16T06:29:15.488Z,24.63
2022-08-16T06:34:56.353Z,25.03
2022-08-16T06:45:12.651Z,25.81
2022-08-16T06:50:42.871Z,26.16
2022-08-16T06:55:53.586Z,26.65
2022-08-16T07:01:14.728Z,27.15
2022-08-16T07:06:29.314Z,27.21
2022-08-16T07:17:08.074Z,28.16
2022-08-16T07:27:45.996Z,29.1
2022-08-16T07:33:04.695Z,29.52
2022-08-16T07:43:43.376Z,30.4
2022-08-16T07:49:02.164Z,30.9
2022-08-16T07:54:21.049Z,31.41
2022-08-16T07:59:42.659Z,32.03
2022-08-16T08:15:37.357Z,33.91
2022-08-16T08:26:17.559Z,32.23
2022-08-16T08:31:33.790Z,31.72
2022-08-16T08:42:11.778Z,31.35
2022-08-16T08:58:09.168Z,33.72
2022-08-16T09:03:40.618Z,33.95
2022-08-16T09:12:04.311Z,34.16
2022-08-16T09:16:57.540Z,33.41
2022-08-16T09:20:34.606Z,32.81
2022-08-16T09:24:47.054Z,32.68
2022-08-16T09:30:32.645Z,33.03
2022-08-16T09:38:36.639Z,34
2022-08-16T09:40:42.446Z,34.31
2022-08-16T09:56:39.601Z,34.56
2022-08-16T10:07:17.370Z,35.84
2022-08-16T10:12:42.308Z,36.34
2022-08-16T10:23:16.944Z,37.45
2022-08-16T10:55:40.489Z,38.49
2022-08-16T11:06:00.663Z,38.39
2022-08-16T11:29:16.849Z,38.43
2022-08-16T11:32:26.779Z,37.55
2022-08-16T11:38:06.271Z,37.57
2022-08-16T11:48:21.613Z,37.16
2022-08-16T11:53:41.024Z,37.03
2022-08-16T12:02:30.843Z,36.9
2022-08-16T12:04:19.001Z,36.96
2022-08-16T12:14:59.283Z,36.43
2022-08-16T12:20:18.886Z,36.22
2022-08-16T12:30:54.956Z,35.45
2022-08-16T12:41:34.723Z,35.16
2022-08-16T12:50:06.747Z,34.98
2022-08-16T12:57:36.304Z,34.68
2022-08-16T13:08:09.962Z,34.25
2022-08-16T13:13:29.492Z,34
2022-08-16T13:24:06.876Z,35.62
2022-08-16T13:29:25.834Z,36.28
2022-08-16T13:40:16.332Z,36.86
2022-08-16T13:56:01.904Z,36.87
2022-08-16T14:06:40.109Z,37.21
2022-08-16T14:12:00.348Z,37.29
2022-08-16T14:22:40.077Z,37.66
2022-08-16T14:27:56.569Z,37.77
2022-08-16T14:38:37.397Z,37.84
2022-08-16T14:49:12.238Z,37.59
2022-08-16T14:54:31.196Z,36.93
2022-08-16T15:05:09.291Z,36.06
2022-08-16T15:21:15.292Z,35.04
2022-08-16T15:29:38.358Z,34.74
2022-08-16T15:37:03.496Z,34.46
2022-08-16T15:47:41.130Z,33.89
2022-08-16T15:53:00.680Z,33.62
2022-08-16T16:03:39.593Z,33.27
2022-08-16T16:08:58.511Z,33.09
2022-08-16T16:19:36.946Z,32.74
2022-08-16T16:28:12.618Z,32.56
2022-08-16T16:30:33.731Z,32.41
2022-08-16T16:35:33.991Z,32.25
2022-08-16T16:51:31.136Z,31.73
2022-08-16T17:02:39.111Z,31.41
2022-08-16T17:12:48.068Z,31.05
2022-08-16T17:34:29.627Z,30.45
2022-08-16T17:44:43.846Z,30.16
2022-08-16T17:50:03.071Z,30.03
2022-08-16T18:00:41.600Z,29.72
2022-08-16T18:16:39.767Z,29.25
2022-08-16T18:27:24.835Z,28.94
2022-08-16T18:32:38.037Z,28.75
2022-08-16T18:43:16.336Z,28.44
2022-08-16T18:51:49.404Z,28.3
2022-08-16T18:59:13.590Z,27.97
2022-08-16T19:04:48.277Z,27.85
2022-08-16T19:09:51.512Z,27.68
2022-08-16T19:20:29.639Z,27.41
2022-08-16T19:25:49.763Z,27.3
2022-08-16T19:36:30.750Z,27.01
2022-08-16T19:47:05.677Z,26.81
2022-08-16T19:52:24.830Z,26.67
2022-08-16T20:03:03.362Z,26.4
2022-08-16T20:08:22.053Z,26.27
2022-08-16T20:13:40.912Z,26.22
2022-08-16T20:19:00.088Z,26.12
2022-08-16T20:24:35.034Z,25.96
2022-08-16T20:34:57.803Z,25.78
2022-08-16T20:45:36.563Z,25.55
2022-08-16T20:50:55.984Z,25.48
2022-08-16T20:59:29.089Z,25.35
2022-08-16T21:01:46.096Z,25.3
2022-08-16T21:15:26.901Z,25.08
2022-08-16T21:17:31.818Z,25
2022-08-16T21:31:23.787Z,24.84
2022-08-16T21:35:40.270Z,24.77
2022-08-16T21:44:38.788Z,24.68
2022-08-16T21:55:14.102Z,24.43
2022-08-16T22:06:00.237Z,24.26
2022-08-16T22:24:01.030Z,24.03
2022-08-16T22:27:08.375Z,23.98
2022-08-16T22:32:27.924Z,23.93
2022-08-16T22:48:26.217Z,23.73
2022-08-16T22:59:04.428Z,23.57
2022-08-16T23:04:23.601Z,23.49
2022-08-16T23:15:02.943Z,23.38
2022-08-16T23:20:32.731Z,23.32
2022-08-16T23:31:11.751Z,23.19
2022-08-16T23:39:33.823Z,23.14
2022-08-16T23:57:36.067Z,22.9
